Time;durP1;ratioP1;P1;durP2;ratioP2;P2;SDS_P1;SDS_P2;PMS_P1;PMS_P2;Temp;Humidity;BMP_temperature;BMP_pressure;BME280_temperature;BME280_humidity;BME280_pressure;Samples;Min_cycle;Max_cycle;Signal;HPM_P1;HPM_P2
2022/07/27 00:01:17;;;;;;;1.35;0.45;;;;;;;9.46;100.00;100517.00;7392568;19;20613;-65
2022/07/27 00:03:44;;;;;;;1.33;0.45;;;;;;;9.52;100.00;100517.97;7392091;19;20007;-65
2022/07/27 00:06:11;;;;;;;0.40;0.40;;;;;;;9.56;100.00;100510.25;7394534;19;20461;-66
2022/07/27 00:08:37;;;;;;;0.30;0.30;;;;;;;9.57;100.00;100514.63;7392620;19;20015;-65
2022/07/27 00:11:03;;;;;;;0.80;0.45;;;;;;;9.55;100.00;100519.84;7393946;19;20092;-65
2022/07/27 00:13:31;;;;;;;3.90;0.98;;;;;;;9.54;100.00;100512.72;7391326;19;20468;-65
2022/07/27 00:15:57;;;;;;;1.55;0.73;;;;;;;9.55;100.00;100514.28;7392786;19;20397;-65
2022/07/27 00:18:23;;;;;;;0.20;0.20;;;;;;;9.53;100.00;100505.63;7393213;19;20014;-65
2022/07/27 00:20:49;;;;;;;0.38;0.38;;;;;;;9.53;100.00;100497.28;7392206;19;20031;-65
2022/07/27 00:23:15;;;;;;;0.40;0.40;;;;;;;9.50;100.00;100498.19;7391162;19;20344;-65
2022/07/27 00:25:41;;;;;;;0.52;0.52;;;;;;;9.43;100.00;100495.66;7391935;19;20023;-65
2022/07/27 00:28:07;;;;;;;0.40;0.40;;;;;;;9.31;100.00;100493.72;7396354;19;20011;-65
2022/07/27 00:30:34;;;;;;;5.13;0.77;;;;;;;9.23;100.00;100492.38;7392298;19;20028;-65
2022/07/27 00:33:00;;;;;;;0.20;0.20;;;;;;;9.17;100.00;100483.88;7390738;19;20699;-65
2022/07/27 00:35:26;;;;;;;0.32;0.20;;;;;;;9.09;100.00;100483.34;7391082;19;20108;-65
2022/07/27 00:37:52;;;;;;;0.40;0.40;;;;;;;9.02;100.00;100478.03;7392484;19;20047;-65
2022/07/27 00:40:18;;;;;;;1.85;0.40;;;;;;;9.00;100.00;100490.81;7392288;19;20039;-64
2022/07/27 00:42:44;;;;;;;0.28;0.28;;;;;;;8.90;100.00;100489.94;7391527;19;20756;-65
2022/07/27 00:45:11;;;;;;;0.50;0.50;;;;;;;8.85;100.00;100484.97;7392025;19;20018;-64
2022/07/27 00:47:37;;;;;;;3.72;0.63;;;;;;;8.82;100.00;100479.53;7395575;19;20019;-64
2022/07/27 00:50:04;;;;;;;2.40;0.85;;;;;;;8.80;100.00;100477.22;7389886;19;20010;-64
2022/07/27 00:52:30;;;;;;;0.30;0.30;;;;;;;8.79;100.00;100483.97;7391178;19;20038;-64
2022/07/27 00:54:57;;;;;;;2.00;0.73;;;;;;;8.79;100.00;100481.19;7390834;19;20006;-63
2022/07/27 00:57:25;;;;;;;0.25;0.25;;;;;;;8.79;100.00;100480.44;7395925;19;20570;-64
2022/07/27 00:59:51;;;;;;;3.13;1.02;;;;;;;8.76;100.00;100482.13;7392294;19;20019;-64
2022/07/27 01:02:18;;;;;;;1.08;0.77;;;;;;;8.76;100.00;100493.22;7390768;19;20400;-64
2022/07/27 01:04:44;;;;;;;2.75;0.82;;;;;;;8.79;100.00;100486.00;7391192;19;20021;-63
2022/07/27 01:07:10;;;;;;;1.27;0.52;;;;;;;8.81;100.00;100486.31;7394433;19;20011;-64
2022/07/27 01:09:55;;;;;;;0.30;0.30;;;;;;;8.83;100.00;100487.44;7389298;19;20038;-64
2022/07/27 01:12:23;;;;;;;0.68;0.40;;;;;;;8.88;100.00;100486.09;7392495;19;20360;-64
2022/07/27 01:14:51;;;;;;;2.72;0.70;;;;;;;8.93;100.00;100480.72;7390285;19;20021;-63
2022/07/27 01:17:18;;;;;;;0.73;0.38;;;;;;;8.96;100.00;100490.97;7393157;19;20017;-63
2022/07/27 01:19:44;;;;;;;1.20;0.43;;;;;;;8.99;100.00;100494.81;7389674;19;20011;-63
2022/07/27 01:22:10;;;;;;;0.73;0.65;;;;;;;9.01;100.00;100482.03;7391176;19;20021;-64
2022/07/27 01:24:37;;;;;;;0.17;0.17;;;;;;;9.00;100.00;100491.59;7390774;19;20055;-64
2022/07/27 01:27:04;;;;;;;0.63;0.63;;;;;;;8.97;100.00;100473.06;7394007;19;20044;-63
2022/07/27 01:29:32;;;;;;;0.32;0.32;;;;;;;8.92;100.00;100470.84;7389484;19;20014;-64
2022/07/27 01:31:58;;;;;;;1.95;0.20;;;;;;;8.89;100.00;100463.41;7390045;19;20038;-64
2022/07/27 01:34:25;;;;;;;0.88;0.88;;;;;;;8.90;100.00;100467.72;7387118;19;20045;-64
2022/07/27 01:36:51;;;;;;;0.47;0.47;;;;;;;8.92;100.00;100462.50;7392703;19;20010;-63
2022/07/27 01:39:18;;;;;;;0.43;0.38;;;;;;;8.87;100.00;100460.31;7387692;19;20499;-64
2022/07/27 01:41:45;;;;;;;0.25;0.25;;;;;;;8.85;100.00;100460.00;7393079;19;20025;-63
2022/07/27 01:44:11;;;;;;;0.20;0.20;;;;;;;8.80;100.00;100460.56;7390077;19;20022;-63
2022/07/27 01:46:38;;;;;;;1.60;1.08;;;;;;;8.78;100.00;100457.44;7393383;19;20010;-64
2022/07/27 01:49:04;;;;;;;0.30;0.30;;;;;;;8.73;100.00;100460.78;7389960;19;20007;-64
2022/07/27 01:51:30;;;;;;;0.60;0.60;;;;;;;8.70;100.00;100445.03;7390102;19;20467;-63
2022/07/27 01:53:56;;;;;;;0.90;0.85;;;;;;;8.68;100.00;100453.03;7388518;19;20007;-63
2022/07/27 01:56:23;;;;;;;0.43;0.43;;;;;;;8.63;100.00;100456.38;7391310;19;20035;-63
2022/07/27 01:58:49;;;;;;;2.42;0.50;;;;;;;8.62;100.00;100451.28;7388407;19;20047;-65
2022/07/27 02:01:15;;;;;;;2.50;1.08;;;;;;;8.58;100.00;100453.38;7389181;19;20014;-64
2022/07/27 02:03:41;;;;;;;0.88;0.88;;;;;;;8.55;100.00;100443.19;7388877;19;20035;-64
2022/07/27 02:06:08;;;;;;;1.40;0.30;;;;;;;8.50;100.00;100447.28;7390707;19;20014;-64
2022/07/27 02:08:34;;;;;;;1.85;0.82;;;;;;;8.44;100.00;100443.53;7389564;19;20617;-64
2022/07/27 02:13:47;;;;;;;0.88;0.50;;;;;;;8.35;100.00;100446.22;7388117;19;20010;-64
2022/07/27 02:16:15;;;;;;;0.32;0.32;;;;;;;8.32;100.00;100427.66;7390007;19;20014;-64
2022/07/27 02:18:41;;;;;;;1.08;0.63;;;;;;;8.28;100.00;100430.56;7388509;19;20011;-63
2022/07/27 02:21:09;;;;;;;2.55;0.65;;;;;;;8.27;100.00;100422.69;7387018;19;20014;-64
2022/07/27 02:23:36;;;;;;;0.50;0.50;;;;;;;8.24;100.00;100418.00;7388486;19;20047;-63
2022/07/27 02:26:05;;;;;;;0.45;0.43;;;;;;;8.23;100.00;100416.44;7389929;19;20550;-63
2022/07/27 02:28:32;;;;;;;0.77;0.70;;;;;;;8.19;100.00;100411.00;7389910;19;20046;-63
2022/07/27 02:30:59;;;;;;;0.32;0.32;;;;;;;8.15;100.00;100404.81;7389071;19;20042;-63
2022/07/27 02:33:25;;;;;;;0.35;0.35;;;;;;;8.09;100.00;100405.81;7386411;19;20018;-63
2022/07/27 02:35:51;;;;;;;0.77;0.77;;;;;;;8.06;100.00;100406.69;7390071;19;20017;-64
2022/07/27 02:38:18;;;;;;;0.80;0.80;;;;;;;8.07;100.00;100413.78;7388360;19;20487;-63
2022/07/27 02:40:44;;;;;;;1.75;0.85;;;;;;;8.06;100.00;100409.47;7389617;19;20344;-64
2022/07/27 02:43:11;;;;;;;13.05;0.75;;;;;;;8.05;100.00;100408.72;7387372;19;20015;-64
2022/07/27 02:45:38;;;;;;;2.97;1.20;;;;;;;8.04;100.00;100403.59;7388516;19;20011;-64
2022/07/27 02:48:04;;;;;;;0.65;0.63;;;;;;;8.04;100.00;100414.69;7394523;19;20325;-63
2022/07/27 02:50:30;;;;;;;1.27;0.55;;;;;;;8.04;100.00;100415.47;7394298;19;20022;-63
2022/07/27 02:52:56;;;;;;;1.42;0.60;;;;;;;8.04;100.00;100403.59;7392898;19;20066;-65
2022/07/27 02:55:23;;;;;;;0.60;0.50;;;;;;;8.02;100.00;100397.69;7393590;19;20007;-64
2022/07/27 02:57:49;;;;;;;3.05;0.85;;;;;;;8.00;100.00;100402.91;7394837;19;20014;-64
2022/07/27 03:00:16;;;;;;;0.40;0.40;;;;;;;7.94;100.00;100402.72;7397464;19;20042;-64
2022/07/27 03:02:46;;;;;;;0.45;0.45;;;;;;;7.89;100.00;100402.47;7394652;19;20482;-64
2022/07/27 03:05:12;;;;;;;0.47;0.47;;;;;;;7.81;100.00;100396.41;7394989;19;20033;-64
2022/07/27 03:07:39;;;;;;;0.30;0.30;;;;;;;7.78;100.00;100400.03;7398187;19;20251;-64
2022/07/27 03:10:05;;;;;;;1.05;0.55;;;;;;;7.76;100.00;100405.25;7395035;19;20022;-63
2022/07/27 03:12:31;;;;;;;1.08;1.00;;;;;;;7.73;100.00;100405.38;7399294;19;20007;-64
2022/07/27 03:14:58;;;;;;;1.40;0.57;;;;;;;7.72;100.00;100403.81;7395004;19;20010;-64
2022/07/27 03:17:24;;;;;;;3.60;0.60;;;;;;;7.68;100.00;100408.69;7397814;19;20039;-64
2022/07/27 03:19:50;;;;;;;0.35;0.30;;;;;;;7.67;100.00;100415.47;7393668;19;20019;-64
2022/07/27 03:22:16;;;;;;;0.75;0.60;;;;;;;7.67;100.00;100413.44;7393522;19;20006;-63
2022/07/27 03:24:42;;;;;;;1.92;0.63;;;;;;;7.61;100.00;100410.47;7394321;19;20010;-63
2022/07/27 03:27:09;;;;;;;0.90;0.68;;;;;;;7.56;100.00;100413.78;7395402;19;20007;-63
2022/07/27 03:29:35;;;;;;;0.40;0.40;;;;;;;7.52;100.00;100415.09;7394545;19;20370;-64
2022/07/27 03:32:01;;;;;;;0.55;0.55;;;;;;;7.52;100.00;100407.56;7392912;19;20018;-63
2022/07/27 03:34:27;;;;;;;0.30;0.30;;;;;;;7.53;100.00;100413.88;7391270;19;20018;-63
2022/07/27 03:36:53;;;;;;;0.85;0.68;;;;;;;7.49;100.00;100413.97;7397786;19;20014;-64
2022/07/27 03:39:19;;;;;;;0.20;0.20;;;;;;;7.45;100.00;100413.31;7394229;19;20031;-63
2022/07/27 03:41:45;;;;;;;1.30;0.52;;;;;;;7.43;100.00;100404.66;7397461;19;20015;-64
2022/07/27 03:44:12;;;;;;;0.43;0.43;;;;;;;7.42;100.00;100403.13;7394052;19;20017;-63
2022/07/27 03:46:38;;;;;;;1.52;0.90;;;;;;;7.36;100.00;100402.09;7394670;19;20014;-63
2022/07/27 03:49:04;;;;;;;0.65;0.22;;;;;;;7.39;100.00;100395.69;7392607;19;20343;-63
2022/07/27 03:51:30;;;;;;;2.55;1.17;;;;;;;7.41;100.00;100401.56;7394355;19;20035;-63
2022/07/27 03:53:57;;;;;;;3.92;0.80;;;;;;;7.40;100.00;100399.22;7391306;19;20035;-64
2022/07/27 03:56:23;;;;;;;2.17;0.75;;;;;;;7.41;100.00;100412.63;7394723;19;20089;-64
2022/07/27 03:58:49;;;;;;;4.95;1.73;;;;;;;7.39;100.00;100406.75;7392487;19;20743;-63
2022/07/27 04:01:15;;;;;;;0.65;0.65;;;;;;;7.39;100.00;100415.06;7392056;19;20006;-64
2022/07/27 04:03:42;;;;;;;0.55;0.55;;;;;;;7.31;100.00;100408.19;7390152;19;20019;-63
2022/07/27 04:06:08;;;;;;;0.75;0.75;;;;;;;7.26;100.00;100411.50;7394107;19;20093;-63
2022/07/27 04:08:34;;;;;;;0.70;0.70;;;;;;;7.27;100.00;100413.06;7390699;19;20017;-64
2022/07/27 04:11:00;;;;;;;1.60;1.08;;;;;;;7.28;100.00;100414.59;7394184;19;20662;-64
2022/07/27 04:13:26;;;;;;;1.00;0.75;;;;;;;7.26;100.00;100408.72;7391403;19;20112;-63
2022/07/27 04:15:54;;;;;;;1.35;0.80;;;;;;;7.26;100.00;100419.03;7393477;19;20006;-63
2022/07/27 04:18:21;;;;;;;1.33;0.63;;;;;;;7.20;100.00;100407.72;7391916;19;20010;-63
2022/07/27 04:20:47;;;;;;;0.57;0.57;;;;;;;7.22;100.00;100410.81;7392390;19;20011;-63
2022/07/27 04:23:13;;;;;;;0.40;0.40;;;;;;;7.22;100.00;100416.38;7391827;19;20015;-63
2022/07/27 04:25:39;;;;;;;0.70;0.40;;;;;;;7.21;100.00;100419.56;7393476;19;20631;-63
2022/07/27 04:28:05;;;;;;;2.08;0.80;;;;;;;7.20;100.00;100424.34;7392734;19;20007;-63
2022/07/27 04:30:32;;;;;;;0.88;0.82;;;;;;;7.19;100.00;100428.31;7392572;19;20010;-63
2022/07/27 04:32:58;;;;;;;6.32;0.85;;;;;;;7.19;100.00;100420.00;7391057;19;20019;-63
2022/07/27 04:35:24;;;;;;;1.73;1.30;;;;;;;7.19;100.00;100425.53;7391788;19;20018;-63
2022/07/27 04:37:50;;;;;;;1.90;1.50;;;;;;;7.18;100.00;100423.22;7391116;19;20074;-63
2022/07/27 04:40:16;;;;;;;6.28;1.75;;;;;;;7.14;100.00;100428.88;7391372;19;20015;-63
2022/07/27 04:42:42;;;;;;;2.72;0.85;;;;;;;7.16;100.00;100428.41;7391619;19;20736;-63
2022/07/27 04:45:09;;;;;;;1.63;1.35;;;;;;;7.14;100.00;100434.41;7391643;19;20007;-63
2022/07/27 04:47:35;;;;;;;14.65;3.63;;;;;;;7.13;100.00;100430.06;7395529;19;20651;-63
2022/07/27 04:50:02;;;;;;;17.38;4.07;;;;;;;7.13;100.00;100421.75;7391973;19;20021;-63
2022/07/27 04:52:28;;;;;;;19.15;3.25;;;;;;;7.14;100.00;100419.78;7391118;19;20014;-63
2022/07/27 04:54:54;;;;;;;7.40;2.60;;;;;;;7.18;100.00;100418.47;7391140;19;20447;-63
2022/07/27 04:57:22;;;;;;;11.27;2.40;;;;;;;7.16;100.00;100415.34;7393797;19;20010;-63
2022/07/27 04:59:48;;;;;;;2.05;1.60;;;;;;;7.17;100.00;100407.81;7392972;19;20014;-63
2022/07/27 05:02:14;;;;;;;8.55;2.58;;;;;;;7.17;100.00;100408.59;7390781;19;20018;-63
2022/07/27 05:04:40;;;;;;;10.02;1.58;;;;;;;7.20;100.00;100406.94;7390631;19;20010;-63
2022/07/27 05:07:06;;;;;;;10.23;1.95;;;;;;;7.21;100.00;100414.78;7393542;19;20018;-63
2022/07/27 05:09:33;;;;;;;16.83;2.97;;;;;;;7.25;100.00;100420.25;7389229;19;20023;-63
2022/07/27 05:11:59;;;;;;;6.88;1.63;;;;;;;7.31;100.00;100413.72;7394993;19;20339;-63
2022/07/27 05:14:25;;;;;;;3.55;1.60;;;;;;;7.42;100.00;100413.41;7389229;19;20011;-63
2022/07/27 05:16:51;;;;;;;2.75;1.65;;;;;;;7.52;100.00;100407.56;7392844;19;20010;-63
2022/07/27 05:19:17;;;;;;;5.18;1.48;;;;;;;7.64;100.00;100415.09;7391160;19;20396;-63
2022/07/27 05:21:43;;;;;;;2.42;1.13;;;;;;;7.77;100.00;100411.59;7391157;19;20039;-63
2022/07/27 05:24:10;;;;;;;3.97;1.67;;;;;;;7.87;100.00;100410.47;7390165;19;20009;-64
2022/07/27 05:26:37;;;;;;;4.93;2.08;;;;;;;7.97;100.00;100409.38;7392514;19;20018;-64
2022/07/27 05:29:03;;;;;;;6.03;1.77;;;;;;;8.07;100.00;100409.03;7389994;19;20039;-63
2022/07/27 05:31:29;;;;;;;1.70;1.30;;;;;;;8.19;100.00;100415.78;7389705;19;20019;-63
2022/07/27 05:33:55;;;;;;;1.30;1.20;;;;;;;8.26;100.00;100410.81;7388108;19;20010;-63
2022/07/27 05:36:21;;;;;;;1.38;1.17;;;;;;;8.37;100.00;100413.22;7391157;19;20021;-63
2022/07/27 05:38:48;;;;;;;2.22;1.55;;;;;;;8.44;100.00;100407.47;7390076;19;20412;-63
2022/07/27 05:41:14;;;;;;;1.15;1.13;;;;;;;8.56;100.00;100406.63;7392517;19;20019;-64
2022/07/27 05:43:40;;;;;;;4.40;1.38;;;;;;;8.65;100.00;100409.50;7388907;19;20332;-64
2022/07/27 05:46:06;;;;;;;8.38;1.10;;;;;;;8.71;100.00;100413.25;7390624;19;20062;-64
2022/07/27 05:48:32;;;;;;;7.65;2.33;;;;;;;8.84;100.00;100408.44;7387438;19;20467;-64
2022/07/27 05:50:59;;;;;;;2.90;2.08;;;;;;;8.91;100.00;100410.97;7386915;19;20032;-64
2022/07/27 05:53:25;;;;;;;3.40;1.52;;;;;;;9.01;100.00;100415.34;7388523;19;20015;-63
2022/07/27 05:55:51;;;;;;;5.15;1.77;;;;;;;9.14;100.00;100412.50;7390211;19;20010;-63
2022/07/27 05:58:17;;;;;;;3.53;1.85;;;;;;;9.25;100.00;100412.16;7388419;19;20019;-63
2022/07/27 06:00:43;;;;;;;1.40;1.30;;;;;;;9.35;100.00;100410.97;7392827;19;20022;-63
2022/07/27 06:03:09;;;;;;;5.65;1.65;;;;;;;9.48;100.00;100408.91;7388904;19;20074;-63
2022/07/27 06:05:35;;;;;;;9.95;2.03;;;;;;;9.60;100.00;100410.81;7389883;19;20023;-64
2022/07/27 06:08:07;;;;;;;5.80;1.80;;;;;;;9.69;100.00;100414.41;7387975;19;20011;-63
2022/07/27 06:10:35;;;;;;;3.20;1.83;;;;;;;9.80;100.00;100408.44;7390067;19;20027;-63
2022/07/27 06:13:07;;;;;;;5.63;1.88;;;;;;;9.82;100.00;100417.09;7387103;19;20015;-63
2022/07/27 06:15:35;;;;;;;9.98;2.47;;;;;;;9.86;100.00;100412.94;7388826;19;20018;-63
2022/07/27 06:18:02;;;;;;;5.15;2.47;;;;;;;9.90;100.00;100412.81;7388657;19;20366;-64
2022/07/27 06:20:29;;;;;;;4.00;1.63;;;;;;;9.96;100.00;100421.34;7391472;19;20010;-64
2022/07/27 06:22:59;;;;;;;3.00;1.42;;;;;;;10.00;100.00;100411.63;7396068;19;20014;-63
2022/07/27 06:25:25;;;;;;;6.40;1.10;;;;;;;10.07;100.00;100421.69;7395647;19;20010;-63
2022/07/27 06:27:52;;;;;;;3.80;1.90;;;;;;;10.14;100.00;100413.06;7395596;19;20006;-63
2022/07/27 06:30:19;;;;;;;7.68;2.78;;;;;;;10.19;100.00;100413.25;7395700;19;20015;-64
2022/07/27 06:32:45;;;;;;;8.70;3.53;;;;;;;10.26;100.00;100418.56;7395891;19;20014;-63
2022/07/27 06:35:12;;;;;;;6.90;2.85;;;;;;;10.31;100.00;100419.97;7396497;19;20014;-63
2022/07/27 06:37:51;;;;;;;1.83;1.17;;;;;;;10.38;100.00;100419.66;7398546;19;20393;-63
2022/07/27 06:40:18;;;;;;;3.70;2.25;;;;;;;10.47;100.00;100417.66;7396669;19;20019;-63
2022/07/27 06:42:44;;;;;;;5.20;1.98;;;;;;;10.55;100.00;100420.91;7394322;19;20086;-63
2022/07/27 06:45:11;;;;;;;3.05;1.65;;;;;;;10.62;100.00;100418.63;7394237;19;20074;-64
2022/07/27 06:47:40;;;;;;;2.65;2.08;;;;;;;10.71;100.00;100417.06;7399664;19;20014;-64
2022/07/27 06:50:08;;;;;;;6.32;1.63;;;;;;;10.85;100.00;100427.63;7394699;19;20840;-63
2022/07/27 06:52:34;;;;;;;8.07;1.80;;;;;;;10.93;100.00;100424.06;7394590;19;20467;-63
2022/07/27 06:55:00;;;;;;;6.88;2.17;;;;;;;11.08;100.00;100421.44;7396201;19;20011;-64
2022/07/27 06:57:26;;;;;;;1.45;1.00;;;;;;;11.16;100.00;100417.84;7398958;19;20031;-63
2022/07/27 06:59:52;;;;;;;5.18;1.58;;;;;;;11.25;100.00;100414.28;7398091;19;20040;-63
2022/07/27 07:02:19;;;;;;;7.85;1.75;;;;;;;11.35;100.00;100419.38;7394959;19;20013;-64
2022/07/27 07:04:45;;;;;;;2.35;1.55;;;;;;;11.47;100.00;100414.88;7395607;19;20021;-64
2022/07/27 07:07:11;;;;;;;4.95;2.42;;;;;;;11.59;100.00;100422.28;7397351;19;20010;-64
2022/07/27 07:09:37;;;;;;;4.47;1.70;;;;;;;11.70;100.00;100428.16;7392946;19;20014;-64
2022/07/27 07:12:04;;;;;;;2.40;0.98;;;;;;;11.78;100.00;100418.22;7397872;19;20105;-64
2022/07/27 07:14:30;;;;;;;1.73;1.05;;;;;;;11.89;100.00;100418.50;7392943;19;20018;-64
2022/07/27 07:16:56;;;;;;;1.90;1.13;;;;;;;12.01;100.00;100425.13;7397778;19;20011;-65
2022/07/27 07:19:23;;;;;;;1.08;0.93;;;;;;;12.18;100.00;100424.28;7394615;19;20006;-63
2022/07/27 07:21:50;;;;;;;3.38;0.95;;;;;;;12.34;100.00;100419.53;7394503;19;20022;-63
2022/07/27 07:24:17;;;;;;;4.10;0.80;;;;;;;12.42;100.00;100420.72;7393507;19;20027;-63
2022/07/27 07:26:44;;;;;;;3.47;1.55;;;;;;;12.44;100.00;100421.81;7396103;19;20636;-64
2022/07/27 07:29:10;;;;;;;5.20;1.38;;;;;;;12.49;100.00;100425.97;7394301;19;20040;-64
2022/07/27 07:31:37;;;;;;;3.53;1.45;;;;;;;12.56;100.00;100426.38;7392222;19;20463;-63
2022/07/27 07:34:03;;;;;;;3.28;1.40;;;;;;;12.63;100.00;100425.25;7390770;19;20007;-64
2022/07/27 07:36:29;;;;;;;2.88;0.60;;;;;;;12.72;100.00;100430.78;7396341;19;20011;-63
2022/07/27 07:38:55;;;;;;;5.05;1.52;;;;;;;12.78;100.00;100426.06;7394149;19;20026;-63
2022/07/27 07:41:22;;;;;;;1.00;0.77;;;;;;;12.87;100.00;100424.00;7395315;19;20010;-64
2022/07/27 07:43:49;;;;;;;2.17;0.50;;;;;;;12.95;100.00;100425.16;7393635;19;20014;-63
2022/07/27 07:46:15;;;;;;;0.82;0.60;;;;;;;13.05;100.00;100428.72;7393373;19;20325;-63
2022/07/27 07:48:42;;;;;;;2.63;0.85;;;;;;;13.17;100.00;100432.47;7391698;19;20010;-63
2022/07/27 07:51:10;;;;;;;2.30;0.85;;;;;;;13.40;100.00;100438.03;7392477;19;20014;-64
2022/07/27 07:53:36;;;;;;;2.78;0.85;;;;;;;13.48;100.00;100439.19;7393066;19;20024;-63
2022/07/27 07:56:02;;;;;;;3.78;0.70;;;;;;;13.59;100.00;100438.63;7394726;19;20011;-63
2022/07/27 07:58:30;;;;;;;6.88;1.30;;;;;;;13.69;100.00;100449.22;7393665;19;20014;-64
2022/07/27 08:00:56;;;;;;;2.55;0.73;;;;;;;13.78;100.00;100444.78;7396021;19;20011;-63
2022/07/27 08:03:22;;;;;;;6.40;0.60;;;;;;;13.90;100.00;100443.72;7391077;19;20011;-64
2022/07/27 08:05:48;;;;;;;1.98;0.60;;;;;;;14.03;100.00;100447.00;7393154;19;20007;-64
2022/07/27 08:08:15;;;;;;;6.13;1.13;;;;;;;14.24;100.00;100443.00;7393229;19;20052;-64
2022/07/27 08:10:42;;;;;;;1.45;0.52;;;;;;;14.40;100.00;100442.50;7391991;19;20010;-64
2022/07/27 08:13:08;;;;;;;1.13;0.50;;;;;;;14.52;100.00;100441.41;7392416;19;20015;-64
2022/07/27 08:15:34;;;;;;;1.13;0.63;;;;;;;14.65;100.00;100439.03;7392391;19;20011;-64
2022/07/27 08:18:01;;;;;;;2.65;0.40;;;;;;;14.70;100.00;100440.38;7390032;19;20006;-64
2022/07/27 08:20:27;;;;;;;3.80;0.73;;;;;;;14.92;100.00;100433.00;7391355;19;20467;-64
2022/07/27 08:22:53;;;;;;;1.00;0.63;;;;;;;15.16;100.00;100439.16;7392381;19;20018;-64
2022/07/27 08:25:19;;;;;;;3.50;0.70;;;;;;;15.42;100.00;100438.41;7392237;19;20014;-64
2022/07/27 08:27:46;;;;;;;1.20;0.60;;;;;;;15.70;100.00;100437.44;7396280;19;20007;-65
2022/07/27 08:30:12;;;;;;;2.58;0.85;;;;;;;16.00;100.00;100443.59;7391167;19;20325;-64
2022/07/27 08:32:46;;;;;;;2.92;0.95;;;;;;;16.41;100.00;100439.28;7391406;19;20014;-64
2022/07/27 08:35:15;;;;;;;3.55;0.98;;;;;;;16.68;100.00;100435.88;7392261;19;20038;-64
2022/07/27 08:37:41;;;;;;;2.08;0.77;;;;;;;16.87;100.00;100427.03;7395921;19;20015;-64
2022/07/27 08:40:08;;;;;;;2.55;0.57;;;;;;;16.97;100.00;100422.72;7388977;19;20700;-64
2022/07/27 08:42:35;;;;;;;1.27;0.68;;;;;;;17.04;100.00;100422.22;7396738;19;20464;-64
2022/07/27 08:45:02;;;;;;;1.98;0.47;;;;;;;17.01;100.00;100417.59;7391255;19;20025;-64
2022/07/27 08:47:29;;;;;;;3.08;0.82;;;;;;;16.88;100.00;100417.28;7396106;19;20419;-64
2022/07/27 08:49:56;;;;;;;3.17;0.82;;;;;;;16.85;100.00;100415.50;7391232;19;20029;-64
2022/07/27 08:52:22;;;;;;;1.13;0.93;;;;;;;16.76;100.00;100408.06;7392111;19;20011;-64
2022/07/27 08:54:49;;;;;;;4.60;0.68;;;;;;;16.63;100.00;100411.31;7388508;19;20045;-64
2022/07/27 08:57:15;;;;;;;2.05;0.57;;;;;;;16.74;100.00;100409.84;7393837;19;20019;-63
2022/07/27 08:59:41;;;;;;;7.78;0.77;;;;;;;16.88;100.00;100400.41;7393292;19;20503;-63
2022/07/27 09:02:09;;;;;;;1.63;0.60;;;;;;;17.06;100.00;100397.16;7392047;19;20475;-63
2022/07/27 09:04:39;;;;;;;2.38;0.68;;;;;;;17.24;100.00;100403.09;7390232;19;20673;-64
2022/07/27 09:07:05;;;;;;;0.85;0.35;;;;;;;17.36;100.00;100403.88;7394686;19;20047;-64
2022/07/27 09:09:44;;;;;;;2.70;0.60;;;;;;;17.50;100.00;100399.31;7390203;19;20018;-63
2022/07/27 09:12:11;;;;;;;5.53;0.45;;;;;;;17.56;100.00;100388.84;7392829;19;20018;-63
2022/07/27 09:14:40;;;;;;;0.47;0.20;;;;;;;17.62;100.00;100393.19;7388752;19;20075;-64
2022/07/27 09:17:26;;;;;;;2.10;0.38;;;;;;;17.76;100.00;100392.16;7393305;19;20010;-64
2022/07/27 09:20:01;;;;;;;1.65;0.40;;;;;;;17.89;100.00;100392.41;7390599;19;20015;-64
2022/07/27 09:22:42;;;;;;;0.77;0.30;;;;;;;18.02;100.00;100392.66;7391298;19;20413;-65
2022/07/27 09:25:12;;;;;;;0.50;0.22;;;;;;;17.92;100.00;100380.13;7391646;19;20358;-65
2022/07/27 09:28:36;;;;;;;2.50;0.60;;;;;;;18.06;100.00;100378.34;7420348;19;20385;-79
2022/07/27 09:31:12;;;;;;;0.45;0.30;;;;;;;18.16;100.00;100374.72;7422288;19;20090;-79
2022/07/27 09:33:44;;;;;;;1.67;0.45;;;;;;;18.31;100.00;100379.28;7418588;19;20011;-79
2022/07/27 09:36:11;;;;;;;0.88;0.40;;;;;;;18.44;100.00;100379.50;7419717;19;20015;-78
2022/07/27 09:38:49;;;;;;;0.60;0.32;;;;;;;18.55;100.00;100376.69;7422577;19;20011;-79
2022/07/27 09:41:15;;;;;;;1.08;0.45;;;;;;;18.63;100.00;100372.03;7422888;19;20014;-79
2022/07/27 09:44:00;;;;;;;2.15;0.82;;;;;;;18.74;100.00;100378.41;7420192;19;20080;-79
2022/07/27 09:46:34;;;;;;;3.10;0.30;;;;;;;18.87;100.00;100366.56;7421409;19;20018;-79
2022/07/27 09:49:02;;;;;;;7.88;0.65;;;;;;;19.01;100.00;100362.66;7418436;19;20497;-79
2022/07/27 09:51:29;;;;;;;3.92;1.10;;;;;;;19.20;100.00;100369.19;7418716;19;20408;-78
2022/07/27 09:54:04;;;;;;;0.30;0.20;;;;;;;19.36;100.00;100368.34;7416538;19;20021;-80
2022/07/27 09:56:31;;;;;;;1.25;0.45;;;;;;;19.51;100.00;100365.91;7421384;19;20022;-78
2022/07/27 09:59:00;;;;;;;2.80;0.40;;;;;;;19.57;100.00;100363.84;7422162;19;20582;-78
2022/07/27 10:01:33;;;;;;;0.57;0.35;;;;;;;19.70;100.00;100363.22;7419927;19;20377;-78
2022/07/27 10:04:03;;;;;;;3.50;0.38;;;;;;;19.83;100.00;100368.25;7419631;19;20034;-78
2022/07/27 10:06:30;;;;;;;0.40;0.20;;;;;;;19.92;100.00;100348.13;7417322;19;20022;-79
2022/07/27 10:08:58;;;;;;;0.65;0.20;;;;;;;19.94;100.00;100345.53;7418417;19;20019;-78
2022/07/27 10:11:24;;;;;;;2.20;0.55;;;;;;;20.04;100.00;100352.34;7416704;19;20010;-79
2022/07/27 10:13:52;;;;;;;0.52;0.40;;;;;;;20.08;100.00;100356.44;7416094;19;20353;-80
2022/07/27 10:16:21;;;;;;;0.47;0.28;;;;;;;20.19;100.00;100349.91;7420424;19;20011;-85
2022/07/27 10:18:54;;;;;;;0.43;0.28;;;;;;;20.27;100.00;100353.72;7423428;19;20046;-83
2022/07/27 10:21:22;;;;;;;0.52;0.30;;;;;;;20.35;100.00;100363.91;7419945;19;20031;-78
2022/07/27 10:24:21;;;;;;;0.22;0.22;;;;;;;20.42;100.00;100348.41;7418547;19;20018;-78
2022/07/27 10:26:48;;;;;;;2.65;0.20;;;;;;;20.52;100.00;100355.22;7418579;19;20048;-78
2022/07/27 10:29:16;;;;;;;1.30;0.30;;;;;;;20.58;100.00;100346.66;7417998;19;20025;-78
2022/07/27 10:31:52;;;;;;;0.22;0.22;;;;;;;20.56;100.00;100357.75;7416241;19;20018;-77
2022/07/27 10:34:48;;;;;;;2.00;0.47;;;;;;;20.31;100.00;100351.34;7416846;19;20014;-78
2022/07/27 10:37:25;;;;;;;1.02;0.22;;;;;;;20.18;100.00;100343.47;7417941;19;20018;-78
2022/07/27 10:43:06;;;;;;;3.37;0.53;;;;;;;20.21;100.00;100338.84;7389737;19;20015;-78
2022/07/27 10:45:42;;;;;;;4.90;1.13;;;;;;;20.05;100.00;100334.88;7391160;19;20469;-78
2022/07/27 10:48:38;;;;;;;2.53;1.00;;;;;;;19.97;100.00;100347.28;7391625;19;20600;-78
2022/07/27 10:51:08;;;;;;;1.38;0.15;;;;;;;19.91;100.00;100338.09;7391888;19;20018;-78
2022/07/27 10:53:36;;;;;;;;;;;;;;;19.86;100.00;100334.03;7391243;19;20027;-78
2022/07/27 10:56:04;;;;;;;0.88;0.30;;;;;;;19.83;100.00;100337.94;7390663;19;19919;-77
2022/07/27 10:58:30;;;;;;;1.27;0.20;;;;;;;19.79;100.00;100333.84;7393183;19;20517;-78
2022/07/27 11:00:57;;;;;;;1.27;0.50;;;;;;;19.74;100.00;100343.13;7394957;19;20021;-78
2022/07/27 11:03:31;;;;;;;0.50;0.30;;;;;;;19.64;100.00;100340.63;7389736;19;20014;-78
2022/07/27 11:06:07;;;;;;;1.20;0.30;;;;;;;19.53;100.00;100335.06;7391225;19;20018;-78
2022/07/27 11:08:36;;;;;;;0.20;0.10;;;;;;;19.43;100.00;100330.28;7391379;19;20010;-78
2022/07/27 11:11:05;;;;;;;0.20;0.00;;;;;;;19.38;100.00;100333.94;7389929;19;20006;-78
2022/07/27 11:13:33;;;;;;;0.30;0.13;;;;;;;19.49;100.00;100328.22;7389809;19;20025;-78
2022/07/27 11:16:07;;;;;;;7.00;0.40;;;;;;;19.71;100.00;100327.25;7390234;19;20021;-78
2022/07/27 11:18:35;;;;;;;0.82;0.55;;;;;;;19.99;100.00;100330.59;7390135;19;20074;-78
2022/07/27 11:21:25;;;;;;;0.82;0.10;;;;;;;20.35;100.00;100323.53;7389776;19;20015;-78
2022/07/27 11:24:02;;;;;;;0.38;0.30;;;;;;;20.64;100.00;100322.63;7389077;19;20015;-78
2022/07/27 11:26:38;;;;;;;1.20;0.20;;;;;;;20.90;100.00;100317.13;7390622;19;20070;-78
2022/07/27 11:29:12;;;;;;;0.60;0.30;;;;;;;21.14;100.00;100310.63;7390413;19;20025;-78
2022/07/27 11:31:40;;;;;;;1.73;0.10;;;;;;;21.05;100.00;100308.97;7385938;19;20242;-78